Aérodrome :
LOGIN :

S'inscrire | Disclaimer

   EN    FR    IT 

 










Légende :    VFR   VFR Marginal   IFR   IFR Intensif   IFR Très Intensif
Visi : 
Plafond : 
>= 8 km
>= 3000ft
5 à 8 km
1000 à 3000 ft
1500m à 5 km
500 à 1000 ft
800 à 1500m
200 à 500 ft
< 800m
< 200 ft
Symboles :   Orages  Brouillard  Fortes neiges  Fortes précipitations  Vent > 20 kt
SIGMETs :   Divers  Orages  Givrage  Turbulence  Onde Orograph.  Cendres Volcan.






- Altitude de l'aérodrome : 242 ft
- Code IATA : DUB


EIDW - Dublin

DERNIER METAR :
  • 251930Z 26012KT 9999 FEW017 14/08 Q1014 NOSIG

METARs EXPIRÉS :
  • 251900Z 27013KT 9999 FEW017 14/08 Q1013 NOSIG
  • 251830Z 26014G24KT 230V290 9999 FEW017 15/08 Q1013 NOSIG
  • 251800Z 26017KT 9999 FEW017 SCT032 15/08 Q1013 NOSIG
  • 251730Z 26015KT 210V290 9999 FEW017 SCT040 BKN250 16/08 Q1012 NOSIG
  • 251700Z 27019KT 230V290 9999 FEW017 SCT040 BKN250 16/07 Q1012 NOSIG

TAF TAF EIDW
Valide du 25 à 18h jusqu'au 26 à 18h UTC


251700Z 2518/2618 26016KT 9999 FEW012 BKN030
TEMPO 2518/2519 27017G27KT
BECMG 2519/2521 25011KT
BECMG 2602/2604 22009KT
BECMG 2604/2606 23014G25KT
TEMPO 2605/2611 -RA SCT008 BKN012
PROB40
TEMPO 2607/2610 4000 BKN008
BECMG 2608/2610 26015KT
TEMPO 2609/2618 27016G27KT
PROB40
TEMPO 2611/2613 -RA BKN012



MET'MAP, la Météo Aéronautique d'un coup d'oeil ! - Copyright ORBIFLY Décembre 2007 - Disclaimer

ORBIFLY MET'MAP TEAM :

Programmation & Développement : Alexandra Zaïnal
Sur une idée originale de : Baudouin d'Aumeries
Soutien technique & logistique : Manuel Goepfert
Assistance : Marc-Olivier Méhu

Contact : metmap@orbifly.com




SOURCES & CREDITS :

   NOAA